Tropical Cyclones
[Index]
Main Index Home Page Stock Weather Photos Extreme Storms Discussion Storm News and Storm Chasing Reports Tropical Cyclones / Hurricanes / Typhoons Weather Data and Links Wild Fires / Bushfires Weather Observation Techniques Weather Picture Catalogue Tornado Pictures and Reports Stock Video Footage and DVDs for sale
Season 2009-2010 Tropical Cyclone LAURENCE Track Map
Season 2009-2010 Summaries: [BoM-AU] [JTWC-AU] [JTWC-SIO] [JTWC-SPAC] [JTWC-SH]
<<- Previous TC | BoM 2009-2010 Season | Next TC ->>

click for intensity scale information  Lat/long Grid: Show Hide

 Date Labels: Show Hide

Bureau of Meteorology Tropical Cyclone Data

Name: LAURENCE
Number: 930 / 200910_01

08 Dec 2009 00:00 UTC to 23 Dec 2009 06:00 UTC

    date/time    lat    long    hPa   cat  kts
2009-12-08 00    8.9   139.5                            
2009-12-08 06    9.2   138.2                            
2009-12-08 12    9.5   138.0                            
2009-12-08 18    9.7   137.7                            
2009-12-09 00    9.8   137.2                            
2009-12-09 06    9.9   136.6   1005         20          
2009-12-09 12    9.9   135.9   1005         25          
2009-12-09 18    9.9   135.2   1003         25          
2009-12-10 00   10.0   134.5   1005         25          
2009-12-10 06   10.3   133.7   1003         25          
2009-12-10 12   10.4   133.4   1004         25          
2009-12-10 18   10.5   133.1   1002         25          
2009-12-11 00   10.7   132.7   1005         25          
2009-12-11 06   11.3   132.1   1006         25          
2009-12-11 12   11.8   131.7   1005         25          
2009-12-11 18   12.2   131.1   1005         30          
2009-12-12 00   12.5   130.7    999         35          
2009-12-12 06   13.0   130.2   1004         30          
2009-12-12 12   13.1   130.0   1005         25          
2009-12-12 18   13.2   129.6   1003         25          
2009-12-13 00   13.1   128.7   1004         25          
2009-12-13 06   12.6   127.9   1004         25          
2009-12-13 12   12.2   127.8   1003         25          
2009-12-13 18   12.4   128.8   1002         30          
2009-12-14 00   13.0   128.5    998         35          
2009-12-14 06   13.0   127.8    996         40          
2009-12-14 12   13.1   127.1    988    1    50          
2009-12-14 18   13.2   126.6    984    2    55          
2009-12-15 00   13.6   126.3    978    2    65          
2009-12-15 06   14.3   125.4    958    3    90          
2009-12-15 12   14.6   124.9    949    4    95          
2009-12-15 18   15.1   124.5    945    4    100          
2009-12-15 21   15.2   124.4    933    4    110          
2009-12-16 00   15.3   124.2    932    4    110          
2009-12-16 06   15.9   124.0    950    4    95          
2009-12-16 12   16.2   124.1    961    3    80          
2009-12-16 18   16.5   124.2    982    2    55          
2009-12-17 00   16.9   124.3    992    1    40          
2009-12-17 06   16.9   124.3    995    1    30          
2009-12-17 12   16.9   124.3   1000         20          
2009-12-17 18   16.9   124.3   1002         15          
2009-12-18 00   17.1   124.2   1003         15          
2009-12-18 06   17.2   123.9   1003         20          
2009-12-18 12   17.1   123.4   1001         25          
2009-12-18 18   16.7   122.7    999         30          
2009-12-19 00   16.6   122.6    995    1    35          
2009-12-19 06   16.9   122.2    985    2    50          
2009-12-19 12   17.2   121.8    987    1    50          
2009-12-19 18   17.5   121.3    984    2    55          
2009-12-20 00   17.8   120.9    980    2    60          
2009-12-20 06   18.3   120.6    966    3    70          
2009-12-20 12   18.5   120.4    951    4    85          
2009-12-20 18   18.7   120.4    938    4    100          
2009-12-21 00   19.0   120.5    934    4    105          
2009-12-21 06   19.4   120.6    925    5    110          
2009-12-21 09   19.7   120.7    925    5    110          
2009-12-21 12   20.0   120.8    956    3    80          
2009-12-21 18   20.5   121.0    976    2    55          
2009-12-22 00   21.1   121.2    986    1    40          
2009-12-22 06   21.9   121.7    987    1    35          
2009-12-22 12   22.6   122.8    991    1    30          
2009-12-22 18   23.4   123.8    995    1    30          
2009-12-23 00   24.5   125.2    998         25          
2009-12-23 06   25.3   126.9   1001         20          
Winds are 10-min average.

Tropical cyclone tracks developed by Michael Bath using data from the Bureau of Meteorology and Google Maps.


[Australian Severe Weather index] [Copyright Notice] [Email Contacts] [Search This Site] [Privacy Policy]
Document: tropical_cyclone_laurence.htm Updated: 29 June 2017